Time;durP1;ratioP1;P1;durP2;ratioP2;P2;SDS_P1;SDS_P2;PMS_P1;PMS_P2;Temp;Humidity;BMP_temperature;BMP_pressure;BME280_temperature;BME280_humidity;BME280_pressure;Samples;Min_cycle;Max_cycle;Signal;HPM_P1;HPM_P2
2022/10/31 00:00:58;;;;;;;7.20;4.90;;;;;;;22.98;42.25;95428.50;5007501;28;20033;-63
2022/10/31 00:03:24;;;;;;;6.95;4.82;;;;;;;22.97;42.40;95418.88;5027401;28;20057;-63
2022/10/31 00:05:49;;;;;;;6.20;4.68;;;;;;;22.96;42.21;95398.31;5009247;28;20442;-65
2022/10/31 00:08:16;;;;;;;6.97;5.13;;;;;;;21.82;42.55;95231.53;5009234;28;20410;-64
2022/10/31 00:10:41;;;;;;;6.28;4.80;;;;;;;22.95;42.39;95396.06;5009630;28;20549;-65
2022/10/31 00:13:07;;;;;;;6.97;5.03;;;;;;;22.94;42.44;95400.78;5028041;28;20025;-65
2022/10/31 00:15:36;;;;;;;6.88;4.63;;;;;;;22.94;42.40;95400.78;5008852;28;20053;-65
2022/10/31 00:18:02;;;;;;;7.50;5.10;;;;;;;22.93;42.48;95393.09;4993245;28;20053;-64
2022/10/31 00:20:28;;;;;;;6.80;4.95;;;;;;;22.91;42.37;95401.75;5009976;28;20121;-66
2022/10/31 00:22:53;;;;;;;6.63;4.63;;;;;;;22.92;42.49;95400.50;5009313;28;20477;-64
2022/10/31 00:25:20;;;;;;;6.93;4.43;;;;;;;22.72;42.19;95404.72;5028741;28;20037;-62
2022/10/31 00:27:45;;;;;;;6.53;4.30;;;;;;;21.83;42.29;95233.03;5009941;28;20544;-64
2022/10/31 00:30:11;;;;;;;6.50;4.75;;;;;;;22.88;42.43;95389.13;5027112;28;20045;-65
2022/10/31 00:32:37;;;;;;;7.10;5.32;;;;;;;22.88;42.62;95397.31;5027347;28;20056;-64
2022/10/31 00:35:02;;;;;;;6.93;5.03;;;;;;;22.88;42.56;95402.75;5026121;28;20113;-65
2022/10/31 00:37:28;;;;;;;6.75;4.80;;;;;;;22.86;42.26;95392.84;5009452;28;20034;-63
2022/10/31 00:39:53;;;;;;;7.80;4.97;;;;;;;22.88;42.60;95386.41;5026935;28;20065;-63
2022/10/31 00:42:19;;;;;;;6.38;4.90;;;;;;;22.87;42.47;95383.41;5026444;28;20060;-64
2022/10/31 00:44:44;;;;;;;6.13;4.47;;;;;;;22.73;42.61;95363.38;5010076;28;20053;-65
2022/10/31 00:47:09;;;;;;;6.45;4.70;;;;;;;21.38;42.55;95166.25;5008787;28;20041;-63
2022/10/31 00:49:35;;;;;;;7.07;4.85;;;;;;;22.87;42.81;95388.88;5026669;28;20033;-65
2022/10/31 00:52:00;;;;;;;5.72;4.47;;;;;;;22.85;42.54;95385.91;4993910;28;20033;-65
2022/10/31 00:54:26;;;;;;;7.03;4.90;;;;;;;22.72;42.36;95391.09;5008106;28;20099;-64
2022/10/31 00:56:51;;;;;;;6.75;4.50;;;;;;;22.87;42.85;95394.31;5026522;28;20496;-64
2022/10/31 00:59:16;;;;;;;6.35;4.75;;;;;;;22.86;42.11;95392.84;5026975;28;20405;-64
2022/10/31 01:01:42;;;;;;;6.13;4.47;;;;;;;22.81;42.76;95379.97;5008572;28;20556;-63
2022/10/31 01:04:07;;;;;;;7.72;4.60;;;;;;;22.84;42.84;95387.91;5026579;28;20037;-64
2022/10/31 01:06:33;;;;;;;7.82;4.93;;;;;;;22.63;42.63;95358.69;5026051;28;20053;-65
2022/10/31 01:08:58;;;;;;;6.68;4.93;;;;;;;22.86;42.35;95387.41;5026695;28;20041;-62
2022/10/31 01:11:24;;;;;;;7.82;4.85;;;;;;;22.86;42.36;95392.84;5026574;28;20061;-64
2022/10/31 01:13:51;;;;;;;6.78;4.78;;;;;;;22.85;42.37;95385.91;5007850;28;20048;-63
2022/10/31 01:16:17;;;;;;;8.18;4.82;;;;;;;22.83;42.45;95393.84;4992485;28;20029;-64
2022/10/31 01:18:43;;;;;;;6.47;4.38;;;;;;;22.84;42.42;95389.84;4989794;28;20529;-63
2022/10/31 01:21:13;;;;;;;6.10;4.20;;;;;;;22.83;42.71;95402.00;5026391;28;20059;-64
2022/10/31 01:23:39;;;;;;;5.90;4.45;;;;;;;22.84;42.40;95398.03;4974835;28;20141;-64
2022/10/31 01:26:12;;;;;;;7.10;4.70;;;;;;;22.82;42.59;95398.53;5017681;28;20534;-64
2022/10/31 01:28:39;;;;;;;6.00;4.32;;;;;;;22.75;42.50;95392.81;5022496;28;20049;-64
2022/10/31 01:31:06;;;;;;;5.68;4.28;;;;;;;22.82;42.90;95414.13;4992724;28;20055;-65
2022/10/31 01:33:31;;;;;;;6.05;4.35;;;;;;;22.81;42.50;95407.19;4991129;28;20794;-66
2022/10/31 01:35:57;;;;;;;6.85;4.45;;;;;;;21.77;42.63;95249.34;4991618;28;20048;-65
2022/10/31 01:38:23;;;;;;;6.10;4.53;;;;;;;22.79;42.46;95410.41;5024647;28;20552;-65
2022/10/31 01:40:48;;;;;;;6.18;4.45;;;;;;;22.79;42.64;95398.78;5025358;28;20040;-63
2022/10/31 01:43:14;;;;;;;6.38;4.53;;;;;;;22.71;42.07;95387.66;5026611;28;20037;-65
2022/10/31 01:45:41;;;;;;;6.07;4.15;;;;;;;22.78;42.79;95408.19;5006926;28;20049;-64
2022/10/31 01:48:11;;;;;;;6.53;4.00;;;;;;;22.79;42.90;95409.66;5007391;28;20575;-62
2022/10/31 01:50:37;;;;;;;5.78;4.47;;;;;;;22.79;42.76;95409.66;5007943;28;20041;-62
2022/10/31 01:53:02;;;;;;;7.32;4.82;;;;;;;22.78;42.54;95408.19;5007273;28;20103;-65
2022/10/31 01:55:33;;;;;;;6.75;4.38;;;;;;;22.79;42.53;95415.13;5007456;28;20033;-64
2022/10/31 01:58:02;;;;;;;6.85;4.05;;;;;;;22.74;42.70;95407.69;4990678;28;20065;-63
2022/10/31 02:00:27;;;;;;;5.57;4.30;;;;;;;22.77;42.53;95407.44;5007440;28;20477;-63
2022/10/31 02:02:55;;;;;;;5.95;4.32;;;;;;;22.78;42.79;95429.97;5023721;28;20049;-65
2022/10/31 02:05:22;;;;;;;6.40;4.45;;;;;;;22.47;42.45;95362.91;4991358;28;20061;-63
2022/10/31 02:08:00;;;;;;;6.10;4.10;;;;;;;22.76;42.87;95405.22;4991457;28;20033;-65
2022/10/31 02:10:25;;;;;;;5.75;4.10;;;;;;;22.75;42.59;95398.28;5015774;28;20117;-65
2022/10/31 02:12:52;;;;;;;5.70;4.20;;;;;;;22.75;42.84;95409.16;5019453;28;20518;-64
2022/10/31 02:15:17;;;;;;;6.05;4.15;;;;;;;22.74;42.59;95396.81;4990296;28;20240;-65
2022/10/31 02:17:43;;;;;;;6.07;3.92;;;;;;;21.95;43.37;95284.94;5024933;28;20524;-62
2022/10/31 02:20:16;;;;;;;4.72;3.55;;;;;;;22.69;43.02;95394.81;5026622;28;20398;-63
2022/10/31 02:23:03;;;;;;;4.93;3.70;;;;;;;22.72;43.14;95402.00;5007224;28;20037;-64
2022/10/31 02:25:45;;;;;;;6.00;3.95;;;;;;;22.58;43.18;95373.03;5024900;28;20280;-66
2022/10/31 02:28:32;;;;;;;5.90;4.00;;;;;;;22.76;43.22;95410.66;5006934;28;20497;-64
2022/10/31 02:31:23;;;;;;;5.10;3.80;;;;;;;22.77;43.07;95463.88;5024688;28;20112;-65
2022/10/31 02:33:52;;;;;;;4.88;3.78;;;;;;;22.61;43.12;95388.38;5013664;28;20042;-63
2022/10/31 02:36:30;;;;;;;5.90;4.00;;;;;;;22.77;42.76;95423.03;4990870;28;20132;-64
2022/10/31 02:39:10;;;;;;;5.70;4.00;;;;;;;22.56;42.73;95387.16;5006942;28;20053;-62
2022/10/31 02:41:35;;;;;;;;;;;;;;;22.77;42.75;95418.34;5007060;28;20099;-63
2022/10/31 02:44:10;;;;;;;5.90;4.37;;;;;;;22.78;42.77;95427.25;5024697;28;20328;-64
2022/10/31 02:46:44;;;;;;;5.05;3.58;;;;;;;22.72;42.85;95442.81;5024877;28;20280;-64
2022/10/31 02:49:18;;;;;;;4.75;3.55;;;;;;;22.72;42.64;95421.03;5008093;28;20041;-63
2022/10/31 02:51:44;;;;;;;5.53;3.53;;;;;;;22.55;42.77;95401.25;4990530;28;20056;-64
2022/10/31 02:54:18;;;;;;;5.95;3.67;;;;;;;22.75;42.74;95436.38;4990244;28;20041;-64
2022/10/31 02:56:44;;;;;;;6.00;4.35;;;;;;;22.79;42.62;95442.34;5006555;28;20128;-62
2022/10/31 02:59:09;;;;;;;6.57;4.40;;;;;;;22.77;42.61;95433.94;5024681;28;20045;-64
2022/10/31 03:01:49;;;;;;;6.22;3.70;;;;;;;22.78;42.96;95435.41;5006461;28;20052;-64
2022/10/31 03:04:15;;;;;;;5.70;3.70;;;;;;;22.78;42.94;95441.63;5023019;28;20410;-64
2022/10/31 03:06:52;;;;;;;5.35;3.80;;;;;;;22.76;42.68;95437.88;5023632;28;20059;-64
2022/10/31 03:09:23;;;;;;;5.45;3.45;;;;;;;22.75;42.86;95450.00;5024396;28;20042;-64
2022/10/31 03:12:09;;;;;;;5.10;3.70;;;;;;;21.32;42.77;95222.53;5005705;28;20467;-64
2022/10/31 03:14:38;;;;;;;6.20;3.90;;;;;;;22.55;42.92;95412.13;5011882;28;20038;-65
2022/10/31 03:17:05;;;;;;;6.75;3.85;;;;;;;22.77;43.19;95439.38;5006036;28;20037;-63
2022/10/31 03:19:41;;;;;;;5.25;3.80;;;;;;;22.73;42.97;95433.44;5006782;28;20073;-61
2022/10/31 03:22:19;;;;;;;4.95;3.80;;;;;;;22.57;42.87;95442.31;4995198;28;20038;-63
2022/10/31 03:24:44;;;;;;;7.10;3.78;;;;;;;22.58;42.87;95424.75;4990478;28;20030;-65
2022/10/31 03:27:11;;;;;;;5.90;3.92;;;;;;;22.73;42.97;95468.81;5005113;28;20820;-64
2022/10/31 03:29:37;;;;;;;6.38;4.18;;;;;;;22.72;42.82;95451.00;5006021;28;20045;-64
2022/10/31 03:32:07;;;;;;;5.80;4.20;;;;;;;22.60;42.76;95435.88;5023481;28;20037;-64
2022/10/31 03:34:32;;;;;;;6.05;3.80;;;;;;;22.52;43.01;95415.84;4989934;28;20026;-64
2022/10/31 03:37:00;;;;;;;5.25;3.85;;;;;;;22.71;43.02;95457.69;4977080;28;20032;-65
2022/10/31 03:39:26;;;;;;;4.90;3.35;;;;;;;22.65;42.61;95448.78;5009954;28;20160;-64
2022/10/31 03:41:57;;;;;;;5.20;3.75;;;;;;;22.64;42.83;95474.50;5009560;28;20053;-64
2022/10/31 03:44:22;;;;;;;5.13;3.88;;;;;;;19.75;42.77;95025.34;4979518;28;20092;-65
2022/10/31 03:46:48;;;;;;;5.40;4.10;;;;;;;22.42;43.01;95428.22;4993790;28;20041;-65
2022/10/31 03:49:13;;;;;;;5.25;4.00;;;;;;;21.20;42.72;95242.03;5027579;28;20029;-64
2022/10/31 03:52:13;;;;;;;5.82;4.25;;;;;;;22.69;42.86;95466.34;5009478;28;20053;-63
2022/10/31 03:54:41;;;;;;;5.85;4.07;;;;;;;22.68;42.81;95469.56;5028809;28;20045;-64
2022/10/31 03:57:18;;;;;;;6.70;4.35;;;;;;;22.68;43.14;95464.13;5027510;28;20042;-64
2022/10/31 03:59:45;;;;;;;6.20;4.30;;;;;;;22.52;43.10;95451.97;5027309;28;20534;-65
2022/10/31 04:02:13;;;;;;;5.47;3.97;;;;;;;22.64;42.88;95463.63;4992908;28;20110;-63
2022/10/31 04:04:38;;;;;;;5.78;4.13;;;;;;;22.42;42.98;95441.81;4992683;28;20033;-63
2022/10/31 04:07:04;;;;;;;5.38;4.00;;;;;;;22.67;43.21;95484.41;4993080;28;20041;-62
2022/10/31 04:09:29;;;;;;;5.07;3.83;;;;;;;22.65;43.16;95487.63;5025364;28;20633;-65
2022/10/31 04:11:56;;;;;;;5.45;3.67;;;;;;;21.32;43.08;95287.75;5000971;28;20060;-64
2022/10/31 04:14:22;;;;;;;5.65;4.15;;;;;;;22.64;42.90;95477.22;4996883;28;20568;-63
2022/10/31 04:16:48;;;;;;;6.60;3.70;;;;;;;22.64;43.38;95485.41;4973898;28;20101;-64
2022/10/31 04:19:14;;;;;;;5.32;3.90;;;;;;;22.64;42.94;95479.94;5018508;28;20033;-66
2022/10/31 04:21:39;;;;;;;5.35;4.20;;;;;;;22.63;43.36;95486.63;4992617;28;20107;-62
2022/10/31 04:24:05;;;;;;;5.55;4.05;;;;;;;22.61;42.99;95483.66;5008777;28;20053;-62
2022/10/31 04:26:30;;;;;;;5.43;4.05;;;;;;;22.62;43.23;95482.44;5026870;28;20045;-64
2022/10/31 04:28:56;;;;;;;5.80;4.13;;;;;;;22.61;43.03;95486.38;5009070;28;20048;-63
2022/10/31 04:31:21;;;;;;;6.25;3.95;;;;;;;22.56;43.26;95473.50;5027537;28;20116;-64
2022/10/31 04:33:47;;;;;;;5.10;4.10;;;;;;;22.62;43.25;95487.88;5026546;28;20053;-64
2022/10/31 04:36:12;;;;;;;6.50;4.10;;;;;;;22.64;42.74;95485.41;4992422;28;20064;-65
2022/10/31 04:38:37;;;;;;;5.50;3.70;;;;;;;22.61;43.11;95486.38;5027042;28;20057;-64
2022/10/31 04:41:03;;;;;;;5.88;3.75;;;;;;;22.61;43.19;95486.38;5025931;28;20495;-63
2022/10/31 04:43:28;;;;;;;5.70;4.20;;;;;;;22.60;42.98;95487.59;5027997;28;20037;-64
2022/10/31 04:45:54;;;;;;;5.63;3.78;;;;;;;22.60;42.99;95485.66;5009042;28;20514;-63
2022/10/31 04:48:19;;;;;;;5.20;4.03;;;;;;;21.39;42.95;95302.81;5024778;28;20049;-63
2022/10/31 04:50:45;;;;;;;4.95;3.80;;;;;;;21.46;43.05;95336.47;5026606;28;20048;-62
2022/10/31 04:53:10;;;;;;;4.68;3.70;;;;;;;22.55;43.10;95488.34;5026588;28;20051;-64
2022/10/31 04:55:36;;;;;;;5.38;4.00;;;;;;;21.15;42.89;95281.50;5026251;28;20033;-62
2022/10/31 04:58:01;;;;;;;6.45;4.20;;;;;;;21.50;43.12;95341.66;4992403;28;20770;-64
2022/10/31 05:00:27;;;;;;;9.70;4.47;;;;;;;22.46;43.07;95515.78;5025992;28;20042;-64
2022/10/31 05:02:56;;;;;;;7.22;4.55;;;;;;;22.44;43.28;95488.34;5008561;28;20053;-64
2022/10/31 05:05:24;;;;;;;11.88;4.75;;;;;;;21.16;42.83;95296.56;4991999;28;20053;-62
2022/10/31 05:07:49;;;;;;;12.68;5.00;;;;;;;22.62;43.03;95509.66;4991719;28;20191;-63
2022/10/31 05:10:22;;;;;;;11.52;4.50;;;;;;;21.35;43.13;95324.78;5020823;28;20116;-62
2022/10/31 05:13:06;;;;;;;11.20;4.57;;;;;;;22.59;42.82;95511.38;5005143;28;20136;-66
2022/10/31 05:15:31;;;;;;;12.38;4.75;;;;;;;22.58;42.88;95520.03;5014003;28;20605;-63
2022/10/31 05:17:57;;;;;;;12.85;5.22;;;;;;;22.56;43.13;95519.78;5025492;28;20050;-64
2022/10/31 05:20:24;;;;;;;13.48;5.60;;;;;;;22.48;43.80;95521.47;4988268;28;20469;-64
2022/10/31 05:22:51;;;;;;;12.93;5.03;;;;;;;22.44;43.32;95520.97;5021483;28;20033;-62
2022/10/31 05:25:17;;;;;;;13.05;4.82;;;;;;;21.09;43.30;95318.75;5003808;28;20128;-66
2022/10/31 05:27:43;;;;;;;14.95;5.32;;;;;;;22.50;43.56;95510.84;5007614;28;20041;-65
2022/10/31 05:30:10;;;;;;;15.75;5.00;;;;;;;22.58;43.31;95525.47;5005824;28;20049;-62
2022/10/31 05:32:43;;;;;;;14.70;5.45;;;;;;;22.64;43.45;95523.50;4988088;28;20049;-66
2022/10/31 05:35:15;;;;;;;18.15;5.22;;;;;;;21.05;43.49;95304.66;5001607;28;20042;-65
2022/10/31 05:37:40;;;;;;;17.70;5.50;;;;;;;22.61;43.33;95532.66;4992252;28;20120;-65
2022/10/31 05:40:07;;;;;;;18.75;5.13;;;;;;;22.65;43.42;95533.16;5016832;28;20108;-66
2022/10/31 05:42:32;;;;;;;15.77;5.90;;;;;;;22.71;43.79;95525.75;4971407;28;20045;-67
2022/10/31 05:44:58;;;;;;;15.98;5.75;;;;;;;22.77;43.69;95542.84;5007417;28;20052;-62
2022/10/31 05:47:23;;;;;;;16.50;5.50;;;;;;;22.38;44.01;95479.41;5008321;28;20089;-67
2022/10/31 05:49:49;;;;;;;19.38;5.40;;;;;;;21.50;43.88;95368.84;5007313;28;20041;-64
2022/10/31 05:52:14;;;;;;;14.52;5.45;;;;;;;22.78;44.35;95527.97;5009050;28;20377;-65
2022/10/31 05:54:40;;;;;;;13.65;5.13;;;;;;;22.84;44.27;95555.97;5007821;28;20049;-66
2022/10/31 05:57:05;;;;;;;15.93;5.57;;;;;;;21.42;43.70;95316.19;5024937;28;20530;-69
2022/10/31 05:59:31;;;;;;;14.70;5.18;;;;;;;22.49;43.79;95474.72;5024989;28;20131;-67
2022/10/31 06:01:56;;;;;;;22.15;5.90;;;;;;;23.09;43.63;95540.19;4990558;28;20048;-67
2022/10/31 06:04:21;;;;;;;17.00;5.03;;;;;;;23.25;43.30;95553.06;5022025;28;20030;-66
2022/10/31 06:06:47;;;;;;;14.30;5.00;;;;;;;23.31;43.57;95559.25;5024504;28;20041;-64
2022/10/31 06:09:12;;;;;;;15.80;5.72;;;;;;;23.35;43.33;95565.22;5022174;28;20481;-65
2022/10/31 06:11:38;;;;;;;18.55;5.55;;;;;;;23.39;43.15;95566.47;5023777;28;20556;-62
2022/10/31 06:14:04;;;;;;;17.35;5.43;;;;;;;23.48;43.47;95562.72;5019571;28;20041;-66
2022/10/31 06:16:29;;;;;;;15.32;5.30;;;;;;;23.68;42.78;95565.25;4991352;28;20076;-61
2022/10/31 06:18:54;;;;;;;16.58;6.20;;;;;;;23.23;42.00;95563.72;5023579;28;20103;-61
2022/10/31 06:21:20;;;;;;;13.48;6.38;;;;;;;22.97;41.48;95562.47;5022344;28;20064;-60
2022/10/31 06:23:45;;;;;;;14.68;6.38;;;;;;;22.81;42.28;95554.22;5025740;28;20049;-61
2022/10/31 06:26:11;;;;;;;15.40;6.72;;;;;;;22.83;42.79;95579.00;4991174;28;20037;-62
2022/10/31 06:28:36;;;;;;;17.17;6.88;;;;;;;22.74;42.92;95579.22;5025031;28;20038;-62
2022/10/31 06:31:02;;;;;;;15.35;6.68;;;;;;;22.73;43.81;95591.34;5010672;28;20042;-62
2022/10/31 06:33:27;;;;;;;16.08;6.45;;;;;;;22.66;45.13;95597.25;5021897;28;20041;-61
2022/10/31 06:35:53;;;;;;;18.00;6.78;;;;;;;22.62;43.02;95577.69;5007671;28;20112;-61
2022/10/31 06:38:18;;;;;;;15.43;6.65;;;;;;;22.52;46.27;95565.53;5005230;28;20065;-62
2022/10/31 06:40:43;;;;;;;14.60;7.22;;;;;;;22.61;45.54;95584.38;5001986;28;20166;-61
2022/10/31 06:43:11;;;;;;;18.70;7.30;;;;;;;22.46;44.51;95608.31;5019534;28;20029;-62
2022/10/31 06:45:36;;;;;;;14.13;6.47;;;;;;;22.46;46.97;95592.00;5019078;28;20075;-61
2022/10/31 06:48:02;;;;;;;16.70;7.85;;;;;;;22.39;43.86;95592.47;4984663;28;20037;-61
2022/10/31 06:50:27;;;;;;;14.10;7.45;;;;;;;22.40;43.04;95588.50;5021087;28;20037;-61
2022/10/31 06:52:53;;;;;;;14.32;7.43;;;;;;;22.00;43.39;95542.56;5021375;28;20047;-61
2022/10/31 06:55:22;;;;;;;14.82;7.57;;;;;;;22.46;42.40;95592.00;4987021;28;20036;-62
2022/10/31 06:57:55;;;;;;;14.48;7.72;;;;;;;21.87;42.60;95521.69;5002848;28;20045;-62
2022/10/31 07:00:20;;;;;;;18.05;7.45;;;;;;;22.37;42.50;95586.75;4988889;28;20413;-61
2022/10/31 07:03:05;;;;;;;16.02;8.10;;;;;;;22.42;42.42;95596.94;5022812;28;20033;-61
2022/10/31 07:05:31;;;;;;;16.60;7.80;;;;;;;22.47;41.94;95626.16;4996339;28;20187;-62
2022/10/31 07:08:00;;;;;;;12.70;7.75;;;;;;;22.50;42.21;95595.22;5000871;28;20124;-61
2022/10/31 07:10:27;;;;;;;12.73;7.55;;;;;;;22.64;41.75;95602.44;4988254;28;20493;-61
2022/10/31 07:12:56;;;;;;;14.30;8.10;;;;;;;22.59;41.66;95597.75;5005438;28;20053;-61
2022/10/31 07:15:23;;;;;;;11.98;6.95;;;;;;;22.19;42.00;95546.34;4988458;28;20565;-62
2022/10/31 07:17:48;;;;;;;14.15;7.93;;;;;;;22.42;41.59;95583.34;4988257;28;20038;-62
2022/10/31 07:20:13;;;;;;;14.82;7.53;;;;;;;21.85;41.28;95516.00;5023103;28;20540;-62
2022/10/31 07:22:39;;;;;;;14.02;7.90;;;;;;;22.62;41.30;95591.31;5023061;28;20414;-62
2022/10/31 07:25:04;;;;;;;14.48;8.13;;;;;;;22.63;41.13;95587.34;5005126;28;20032;-62
2022/10/31 07:27:40;;;;;;;12.02;7.43;;;;;;;22.60;41.12;95583.63;5020185;28;20065;-61
2022/10/31 07:30:06;;;;;;;12.43;7.97;;;;;;;22.66;40.70;95570.78;5022289;28;20049;-61
2022/10/31 07:32:41;;;;;;;12.35;7.93;;;;;;;22.81;40.48;95573.28;5021509;28;21599;-61
2022/10/31 07:35:08;;;;;;;12.18;7.80;;;;;;;22.74;40.70;95579.97;4988533;28;20124;-60
2022/10/31 07:37:33;;;;;;;16.13;8.10;;;;;;;22.75;40.89;95580.69;5005077;28;20726;-60
2022/10/31 07:39:59;;;;;;;13.60;8.18;;;;;;;22.65;41.01;95576.72;5005016;28;20057;-61
2022/10/31 07:42:24;;;;;;;13.23;8.27;;;;;;;22.66;41.06;95602.69;5004731;28;20143;-61
2022/10/31 07:44:50;;;;;;;13.48;7.75;;;;;;;21.72;40.38;95401.53;5004952;28;20059;-61
2022/10/31 07:47:15;;;;;;;13.15;8.20;;;;;;;22.60;40.65;95555.66;5021175;28;20146;-61
2022/10/31 07:49:40;;;;;;;13.43;8.02;;;;;;;22.41;40.42;95519.25;5021649;28;20061;-61
2022/10/31 07:52:06;;;;;;;14.13;8.43;;;;;;;22.82;40.36;95572.06;5023411;28;20037;-61
2022/10/31 07:54:31;;;;;;;12.80;8.13;;;;;;;22.82;40.74;95572.06;5004112;28;20037;-61
2022/10/31 07:56:57;;;;;;;14.40;8.52;;;;;;;22.84;40.22;95569.56;5022186;28;20050;-61
2022/10/31 07:59:22;;;;;;;13.45;7.90;;;;;;;22.88;40.75;95571.59;5022235;28;20075;-61
2022/10/31 08:01:48;;;;;;;12.32;7.65;;;;;;;23.00;39.89;95578.56;5004124;28;20029;-61
2022/10/31 08:04:13;;;;;;;18.38;9.02;;;;;;;22.94;40.60;95583.25;5020997;28;20041;-62
2022/10/31 08:06:38;;;;;;;12.18;8.55;;;;;;;22.84;40.98;95577.75;5020390;28;20072;-62
2022/10/31 08:09:04;;;;;;;15.95;10.18;;;;;;;23.23;39.42;95561.00;4992879;28;20057;-61
2022/10/31 08:11:29;;;;;;;15.48;9.45;;;;;;;23.37;39.03;95579.09;5023743;28;20041;-67
2022/10/31 08:13:55;;;;;;;15.52;10.30;;;;;;;23.03;39.78;95572.13;5021404;28;20049;-62
2022/10/31 08:16:20;;;;;;;15.25;10.35;;;;;;;23.10;39.39;95577.09;5001621;28;20033;-61
2022/10/31 08:18:45;;;;;;;13.88;9.75;;;;;;;22.86;39.50;95578.03;5016677;28;20049;-62
2022/10/31 08:21:11;;;;;;;17.27;11.10;;;;;;;23.04;39.30;95579.06;5021675;28;20057;-62
2022/10/31 08:23:36;;;;;;;15.02;10.18;;;;;;;21.83;39.41;95423.31;5007158;28;20414;-62
2022/10/31 08:26:02;;;;;;;15.80;9.80;;;;;;;22.64;39.92;95575.22;5006693;28;20509;-64
2022/10/31 08:28:27;;;;;;;16.15;10.15;;;;;;;21.34;39.82;95374.91;5008734;28;20033;-63
2022/10/31 08:30:53;;;;;;;14.25;9.85;;;;;;;22.72;39.73;95578.94;5008539;28;20041;-63
2022/10/31 08:33:19;;;;;;;15.25;10.25;;;;;;;22.95;39.71;95573.84;5008261;28;20117;-64
2022/10/31 08:35:44;;;;;;;20.15;10.70;;;;;;;22.93;39.68;95579.03;5023264;28;20544;-63
2022/10/31 08:38:10;;;;;;;20.45;11.30;;;;;;;23.01;39.20;95612.72;5017250;28;20045;-64
2022/10/31 08:40:36;;;;;;;18.25;11.77;;;;;;;23.27;38.92;95569.66;4987527;28;20029;-64
2022/10/31 08:43:20;;;;;;;18.13;11.45;;;;;;;23.01;39.03;95574.59;5010945;28;20119;-63
2022/10/31 08:45:48;;;;;;;22.83;13.10;;;;;;;23.09;38.68;95553.81;5023248;28;20049;-63
2022/10/31 08:48:15;;;;;;;17.45;10.98;;;;;;;22.86;39.20;95545.34;4991426;28;20049;-63
2022/10/31 08:50:40;;;;;;;19.17;12.02;;;;;;;23.33;39.21;95573.13;5016376;28;20049;-63
2022/10/31 08:53:07;;;;;;;17.60;11.27;;;;;;;22.66;38.34;95433.91;5014177;28;20073;-63
2022/10/31 08:55:35;;;;;;;18.58;10.90;;;;;;;23.35;38.57;95573.41;5005353;28;20108;-63
2022/10/31 08:58:00;;;;;;;13.93;10.18;;;;;;;23.40;38.58;95561.75;5006249;28;20032;-64
2022/10/31 09:00:26;;;;;;;18.63;11.00;;;;;;;23.39;38.93;95549.34;5024545;28;20085;-63
2022/10/31 09:02:59;;;;;;;15.05;9.93;;;;;;;23.40;38.80;95572.66;5021622;28;20425;-63
2022/10/31 09:05:24;;;;;;;15.90;9.40;;;;;;;23.42;39.01;95586.50;5014405;28;20531;-62
2022/10/31 09:07:50;;;;;;;16.05;9.70;;;;;;;23.58;38.53;95561.25;5019178;28;20033;-63
2022/10/31 09:10:15;;;;;;;13.07;9.23;;;;;;;22.41;38.58;95404.97;5009089;28;20057;-63
2022/10/31 09:12:41;;;;;;;15.32;9.70;;;;;;;23.60;38.57;95575.09;5014511;28;20084;-63
2022/10/31 09:15:07;;;;;;;14.27;9.73;;;;;;;23.26;38.54;95524.59;4991954;28;20115;-64
2022/10/31 09:17:32;;;;;;;13.48;8.63;;;;;;;23.77;38.46;95562.25;5008210;28;20045;-64
2022/10/31 09:19:58;;;;;;;12.85;8.57;;;;;;;23.60;38.97;95556.78;5024952;28;20042;-62
2022/10/31 09:22:23;;;;;;;17.00;8.85;;;;;;;23.71;38.63;95554.06;5027174;28;20033;-64
2022/10/31 09:24:49;;;;;;;17.58;9.05;;;;;;;23.74;38.82;95546.88;5014983;28;20050;-64
2022/10/31 09:27:14;;;;;;;14.63;8.32;;;;;;;22.76;38.73;95410.66;5014140;28;20052;-64
2022/10/31 09:29:39;;;;;;;13.65;8.30;;;;;;;23.70;39.17;95562.75;5014370;28;20037;-65
2022/10/31 09:32:05;;;;;;;12.15;8.18;;;;;;;22.36;39.12;95367.59;5012401;28;20073;-63
2022/10/31 09:34:30;;;;;;;13.43;7.78;;;;;;;23.77;39.21;95551.34;5019102;28;20478;-63
2022/10/31 09:36:56;;;;;;;13.55;8.35;;;;;;;23.72;39.48;95546.63;5006363;28;20055;-63
2022/10/31 09:39:21;;;;;;;13.57;7.28;;;;;;;23.60;39.77;95553.31;5011549;28;20037;-63
2022/10/31 09:42:08;;;;;;;15.90;7.53;;;;;;;23.51;39.67;95535.22;5019088;28;20477;-62
2022/10/31 09:44:46;;;;;;;11.00;7.30;;;;;;;23.68;39.81;95551.59;5018855;28;20114;-62
2022/10/31 09:47:15;;;;;;;12.75;7.65;;;;;;;23.88;39.00;95552.81;5013320;28;20143;-62
2022/10/31 09:49:59;;;;;;;11.02;7.70;;;;;;;23.69;39.19;95545.66;5018047;28;20512;-62
2022/10/31 09:52:31;;;;;;;12.32;7.50;;;;;;;23.57;39.77;95532.47;4992429;28;20107;-63
2022/10/31 09:55:14;;;;;;;11.57;7.57;;;;;;;23.72;39.67;95543.91;4985742;28;20045;-63
2022/10/31 09:57:40;;;;;;;13.30;6.47;;;;;;;23.86;39.17;95565.44;5018745;28;20129;-63
2022/10/31 10:00:07;;;;;;;12.35;7.18;;;;;;;23.89;38.84;95527.00;5003892;28;20049;-62
2022/10/31 10:02:43;;;;;;;10.48;6.75;;;;;;;22.97;39.34;95427.03;5004466;28;20068;-61
2022/10/31 10:05:13;;;;;;;14.73;7.53;;;;;;;24.03;38.88;95536.88;4997900;28;20048;-63
2022/10/31 10:07:41;;;;;;;10.23;6.97;;;;;;;24.07;38.71;95542.81;4985527;28;20033;-62
2022/10/31 10:10:14;;;;;;;10.57;6.60;;;;;;;24.00;38.61;95543.31;5018552;28;20132;-63
2022/10/31 10:13:01;;;;;;;11.77;6.90;;;;;;;24.08;39.16;95527.94;5018395;28;20145;-63
2022/10/31 10:15:32;;;;;;;11.60;6.47;;;;;;;24.09;39.47;95529.41;5006256;28;20585;-62
2022/10/31 10:18:16;;;;;;;13.30;6.22;;;;;;;24.20;39.14;95501.34;5006875;28;20052;-62
2022/10/31 10:20:44;;;;;;;8.68;5.90;;;;;;;24.58;38.89;95520.31;4996381;28;20053;-61
2022/10/31 10:23:32;;;;;;;9.70;6.10;;;;;;;24.54;38.94;95519.81;5019502;28;20050;-62
2022/10/31 10:26:44;;;;;;;10.10;5.78;;;;;;;24.22;38.76;95461.41;5022666;28;20042;-63
2022/10/31 10:29:37;;;;;;;9.75;5.35;;;;;;;24.58;38.98;95506.66;5013618;28;20115;-63
2022/10/31 10:32:22;;;;;;;9.55;6.00;;;;;;;24.59;38.79;95505.41;5024341;28;20042;-61
2022/10/31 10:34:50;;;;;;;8.60;5.30;;;;;;;24.87;38.47;95493.03;4989513;28;20095;-63
2022/10/31 10:37:22;;;;;;;9.73;5.63;;;;;;;23.51;38.24;95294.59;5006791;28;20033;-63
2022/10/31 10:39:50;;;;;;;8.18;5.13;;;;;;;24.87;38.65;95488.34;5020583;28;20111;-64
2022/10/31 10:48:11;;;;;;;7.07;4.93;;;;;;;25.40;37.64;95477.47;5022520;28;20068;-62
2022/10/31 10:50:41;;;;;;;7.78;4.47;;;;;;;25.51;37.09;95491.03;5018873;28;20514;-67
2022/10/31 10:53:09;;;;;;;9.05;4.47;;;;;;;25.32;37.66;95473.09;5006183;28;20120;-65
2022/10/31 10:55:37;;;;;;;8.25;4.75;;;;;;;24.29;37.30;95280.72;5022032;28;20041;-66
2022/10/31 10:58:04;;;;;;;8.02;4.20;;;;;;;25.68;37.43;95499.13;5023914;28;20017;-65
2022/10/31 11:00:31;;;;;;;5.88;4.28;;;;;;;23.02;36.69;95069.47;5005821;28;20446;-62
2022/10/31 11:02:56;;;;;;;8.05;4.22;;;;;;;24.97;36.73;95366.53;5005770;28;20045;-64
2022/10/31 11:05:44;;;;;;;8.10;4.25;;;;;;;24.87;36.40;95312.72;5005402;28;20037;-67
2022/10/31 11:08:10;;;;;;;6.63;3.70;;;;;;;25.88;36.58;95475.50;5019783;28;20136;-68
2022/10/31 11:10:35;;;;;;;6.28;3.90;;;;;;;25.84;36.08;95496.22;5023779;28;20132;-63
2022/10/31 11:13:03;;;;;;;4.68;3.40;;;;;;;25.98;36.50;95471.19;5023751;28;20037;-64
2022/10/31 11:15:32;;;;;;;6.80;3.80;;;;;;;26.21;35.95;95464.19;5007384;28;20122;-62
2022/10/31 11:17:57;;;;;;;7.15;3.92;;;;;;;26.14;36.21;95464.75;5002379;28;20044;-65
2022/10/31 11:20:34;;;;;;;6.57;4.00;;;;;;;25.77;37.12;95485.09;5023159;28;20068;-64
2022/10/31 11:23:17;;;;;;;6.68;3.65;;;;;;;25.88;36.48;95464.56;5006661;28;20145;-65
2022/10/31 11:26:15;;;;;;;5.68;3.47;;;;;;;25.84;36.61;95464.13;4990170;28;20124;-61
2022/10/31 11:28:40;;;;;;;6.68;3.88;;;;;;;26.03;36.59;95464.16;5002335;28;20042;-63
2022/10/31 11:31:13;;;;;;;6.95;3.90;;;;;;;26.32;35.92;95453.09;5007462;28;20052;-64
2022/10/31 11:33:49;;;;;;;6.47;3.72;;;;;;;25.26;35.93;95283.78;4998643;28;20824;-64
2022/10/31 11:36:34;;;;;;;6.38;3.50;;;;;;;26.16;35.54;95396.56;4986366;28;20054;-64
2022/10/31 11:39:00;;;;;;;6.68;3.50;;;;;;;26.38;35.72;95445.56;5020871;28;20053;-63
2022/10/31 11:41:29;;;;;;;7.50;3.85;;;;;;;26.68;35.20;95444.13;4999480;28;20446;-61